createdAt,value
2019-03-29T14:24:31.022Z,31.80
2019-03-29T14:26:57.233Z,32.20
2019-03-29T14:29:24.317Z,32.30
2019-03-29T14:31:50.635Z,33.10
2019-03-29T14:34:16.869Z,33.70
2019-03-29T14:36:43.442Z,33.20
2019-03-29T14:41:36.223Z,31.80
2019-03-29T14:44:02.528Z,32.10
2019-03-29T14:46:28.746Z,32.40
2019-03-29T14:48:54.966Z,32.80
2019-03-29T14:51:21.194Z,32.90
2019-03-29T14:53:47.416Z,33.30
2019-03-29T14:56:13.646Z,33.00
2019-03-29T14:58:39.856Z,33.30
2019-03-29T15:01:06.074Z,34.20
2019-03-29T15:03:32.305Z,34.10
2019-03-29T15:06:01.686Z,35.00
2019-03-29T15:08:28.363Z,33.80
2019-03-29T15:10:54.599Z,33.90
2019-03-29T15:13:20.798Z,33.00
2019-03-29T15:15:47.035Z,32.90
2019-03-29T15:18:13.438Z,34.10
2019-03-29T15:20:58.376Z,34.70
2019-03-29T15:23:25.691Z,33.50
2019-03-29T15:25:51.922Z,32.60
2019-03-29T15:28:18.162Z,32.10
2019-03-29T15:30:44.461Z,32.40
2019-03-29T15:33:10.795Z,33.30
2019-03-29T15:35:37.014Z,33.00
2019-03-29T15:38:03.393Z,33.30
2019-03-29T15:40:31.450Z,33.20
2019-03-29T15:42:57.807Z,32.30
2019-03-29T15:45:24.027Z,32.20
2019-03-29T15:47:50.271Z,32.60
2019-03-29T15:50:16.540Z,32.80
2019-03-29T15:52:42.813Z,32.40
2019-03-29T15:55:11.379Z,32.10
2019-03-29T15:57:37.437Z,32.60
2019-03-29T16:02:33.437Z,31.60
2019-03-29T16:04:59.746Z,31.30
2019-03-29T16:07:26.210Z,31.20
2019-03-29T16:09:52.419Z,31.90
2019-03-29T16:14:45.195Z,30.80
2019-03-29T16:17:11.423Z,30.10
2019-03-29T16:19:37.762Z,30.50
2019-03-29T16:48:58.463Z,29.90
2019-03-29T16:51:24.775Z,28.50
2019-03-29T16:53:50.986Z,28.90
2019-03-29T16:56:17.630Z,28.60
2019-03-29T16:58:43.839Z,28.50
2019-03-29T17:01:10.067Z,27.30
2019-03-29T17:03:36.282Z,27.60
2019-03-29T17:06:02.613Z,27.70
2019-03-29T17:08:29.018Z,27.10
2019-03-29T17:10:55.243Z,27.00
2019-03-29T17:13:21.463Z,26.80
2019-03-29T17:16:00.703Z,26.70
2019-03-29T17:18:28.535Z,26.10
2019-03-29T17:20:44.093Z,26.30
2019-03-29T17:23:10.757Z,26.00
2019-03-29T17:25:37.083Z,25.30
2019-03-29T17:28:03.282Z,24.60
2019-03-29T17:30:35.600Z,23.60
2019-03-29T17:33:01.791Z,22.30
2019-03-29T17:35:28.058Z,20.80
